Time;durP1;ratioP1;P1;durP2;ratioP2;P2;SDS_P1;SDS_P2;PMS_P1;PMS_P2;Temp;Humidity;BMP_temperature;BMP_pressure;BME280_temperature;BME280_humidity;BME280_pressure;Samples;Min_cycle;Max_cycle;Signal;HPM_P1;HPM_P2
2021/08/21 00:01:24;;;;;;;7.25;5.55;;;19.20;94.10;;;;;;5053607;28;20116;-65
2021/08/21 00:03:50;;;;;;;7.38;5.85;;;19.20;94.00;;;;;;5040807;28;20017;-65
2021/08/21 00:06:16;;;;;;;8.25;5.25;;;19.20;94.00;;;;;;5039090;28;20088;-65
2021/08/21 00:08:41;;;;;;;8.30;5.47;;;19.20;94.00;;;;;;5038844;28;20045;-66
2021/08/21 00:11:07;;;;;;;7.30;5.35;;;19.30;94.00;;;;;;5053171;28;20061;-66
2021/08/21 00:13:32;;;;;;;8.00;5.70;;;19.30;94.00;;;;;;5050055;28;20112;-66
2021/08/21 00:15:58;;;;;;;7.05;5.78;;;19.30;94.00;;;;;;5016064;28;20029;-65
2021/08/21 00:18:23;;;;;;;7.03;5.53;;;19.30;94.00;;;;;;5036042;28;20710;-66
2021/08/21 00:20:49;;;;;;;6.38;5.20;;;19.30;94.00;;;;;;5053848;28;20091;-65
2021/08/21 00:23:15;;;;;;;7.78;5.60;;;19.30;94.00;;;;;;5043504;28;20031;-65
2021/08/21 00:25:40;;;;;;;7.13;5.43;;;19.30;94.00;;;;;;5047448;28;20116;-65
2021/08/21 00:28:06;;;;;;;6.65;5.13;;;19.30;94.10;;;;;;5033456;28;20017;-65
2021/08/21 00:30:31;;;;;;;7.25;5.10;;;19.30;94.10;;;;;;5049763;28;20037;-65
2021/08/21 00:32:57;;;;;;;7.40;5.10;;;19.30;94.10;;;;;;5033269;28;20028;-65
2021/08/21 00:35:22;;;;;;;6.90;5.40;;;19.30;94.00;;;;;;5037059;28;20098;-65
2021/08/21 00:37:50;;;;;;;6.95;5.28;;;19.30;94.10;;;;;;5053670;28;20041;-65
2021/08/21 00:40:15;;;;;;;7.72;5.45;;;19.30;94.10;;;;;;5051638;28;20021;-65
2021/08/21 00:42:41;;;;;;;7.38;5.32;;;19.30;94.10;;;;;;5016993;28;20033;-65
2021/08/21 00:45:07;;;;;;;7.38;5.05;;;19.30;94.10;;;;;;5048960;28;20616;-66
2021/08/21 00:47:33;;;;;;;7.15;4.78;;;19.30;94.10;;;;;;5048224;28;20029;-66
2021/08/21 00:49:59;;;;;;;7.40;5.25;;;19.30;94.20;;;;;;5048180;28;20045;-66
2021/08/21 00:52:27;;;;;;;5.82;4.80;;;19.30;94.20;;;;;;5045809;28;20041;-66
2021/08/21 00:54:54;;;;;;;8.10;5.63;;;19.30;94.30;;;;;;5051700;28;20052;-66
2021/08/21 00:57:20;;;;;;;7.80;5.85;;;19.30;94.20;;;;;;5046351;28;20083;-66
2021/08/21 00:59:48;;;;;;;8.73;5.22;;;19.30;94.20;;;;;;5047548;28;20116;-66
2021/08/21 01:02:15;;;;;;;7.35;5.13;;;19.30;94.20;;;;;;5051849;28;20554;-65
2021/08/21 01:04:43;;;;;;;7.53;5.47;;;19.20;94.20;;;;;;5049543;28;20025;-65
2021/08/21 01:07:28;;;;;;;6.75;5.65;;;19.20;94.20;;;;;;5053106;28;20044;-65
2021/08/21 01:09:54;;;;;;;8.98;5.40;;;19.20;94.20;;;;;;5040905;28;20033;-65
2021/08/21 01:12:21;;;;;;;9.80;5.88;;;19.30;94.30;;;;;;5040235;28;20032;-65
2021/08/21 01:14:49;;;;;;;6.10;4.78;;;19.20;94.20;;;;;;5050957;28;20025;-65
2021/08/21 01:17:16;;;;;;;8.23;6.18;;;19.30;94.20;;;;;;5028408;28;20038;-65
2021/08/21 01:19:45;;;;;;;6.75;5.07;;;19.30;94.20;;;;;;5046085;28;20025;-65
2021/08/21 01:22:13;;;;;;;6.50;5.25;;;19.30;94.20;;;;;;5047484;28;20397;-65
2021/08/21 01:24:39;;;;;;;6.93;4.72;;;19.30;94.20;;;;;;5044161;28;20035;-65
2021/08/21 01:27:06;;;;;;;6.85;5.00;;;19.40;94.20;;;;;;5050916;28;20031;-65
2021/08/21 01:29:32;;;;;;;8.55;5.03;;;19.30;94.20;;;;;;5043408;28;20120;-65
2021/08/21 01:31:57;;;;;;;6.38;4.75;;;19.40;94.20;;;;;;5033977;28;20505;-65
2021/08/21 01:34:23;;;;;;;8.20;5.30;;;19.40;94.20;;;;;;5051777;28;20036;-65
2021/08/21 01:36:50;;;;;;;7.38;4.93;;;19.40;94.20;;;;;;5038575;28;20041;-65
2021/08/21 01:39:18;;;;;;;6.18;4.88;;;19.40;94.20;;;;;;5040629;28;20025;-65
2021/08/21 01:41:46;;;;;;;7.38;4.68;;;19.40;94.30;;;;;;5051657;28;20036;-65
2021/08/21 01:44:14;;;;;;;7.15;5.00;;;19.40;94.30;;;;;;5049694;28;20053;-65
2021/08/21 01:46:40;;;;;;;6.93;5.22;;;19.40;94.30;;;;;;5052021;28;20032;-65
2021/08/21 01:49:11;;;;;;;6.82;4.80;;;19.40;94.20;;;;;;5047524;28;20120;-65
2021/08/21 01:51:39;;;;;;;6.57;5.25;;;19.40;94.20;;;;;;5045940;28;20558;-66
2021/08/21 01:54:04;;;;;;;7.07;5.45;;;19.40;94.20;;;;;;5037577;28;20500;-65
2021/08/21 01:56:30;;;;;;;7.82;5.68;;;19.40;94.20;;;;;;5028113;28;20022;-65
2021/08/21 01:58:55;;;;;;;8.82;6.03;;;19.40;94.20;;;;;;5042643;28;20033;-65
2021/08/21 02:01:22;;;;;;;8.85;6.13;;;19.50;94.20;;;;;;5044553;28;20045;-65
2021/08/21 02:03:47;;;;;;;7.53;5.47;;;19.40;94.20;;;;;;5043321;28;20038;-65
2021/08/21 02:06:14;;;;;;;7.85;5.20;;;19.50;94.20;;;;;;5043714;28;20087;-65
2021/08/21 02:08:40;;;;;;;7.80;5.28;;;19.50;94.20;;;;;;5046304;28;20099;-65
2021/08/21 02:11:06;;;;;;;7.50;5.80;;;19.40;94.20;;;;;;5038279;28;20033;-65
2021/08/21 02:13:31;;;;;;;6.00;4.97;;;19.40;94.30;;;;;;5045708;28;20025;-65
2021/08/21 02:15:56;;;;;;;6.22;5.35;;;19.40;94.30;;;;;;5049658;28;20465;-65
2021/08/21 02:18:22;;;;;;;7.43;5.45;;;19.30;94.30;;;;;;5050318;28;20056;-65
2021/08/21 02:20:47;;;;;;;9.48;6.20;;;19.30;94.40;;;;;;5048495;28;20457;-65
2021/08/21 02:23:13;;;;;;;7.85;5.90;;;19.30;94.50;;;;;;5040706;28;20033;-65
2021/08/21 02:25:39;;;;;;;7.75;5.57;;;19.30;94.40;;;;;;5036497;28;20024;-65
2021/08/21 02:28:10;;;;;;;7.53;5.80;;;19.30;94.50;;;;;;5037486;28;20032;-65
2021/08/21 02:30:37;;;;;;;7.82;6.03;;;19.20;94.50;;;;;;5036156;28;20050;-65
2021/08/21 02:33:04;;;;;;;7.15;5.28;;;19.30;94.50;;;;;;5051320;28;20028;-65
2021/08/21 02:35:30;;;;;;;8.13;5.93;;;19.20;94.50;;;;;;5036647;28;20032;-64
2021/08/21 02:37:55;;;;;;;6.85;5.82;;;19.20;94.50;;;;;;5031075;28;20482;-64
2021/08/21 02:40:21;;;;;;;9.63;5.70;;;19.20;94.50;;;;;;5034932;28;20505;-64
2021/08/21 02:42:49;;;;;;;7.82;5.68;;;19.20;94.50;;;;;;5050685;28;20120;-64
2021/08/21 02:45:15;;;;;;;7.60;5.68;;;19.20;94.50;;;;;;5047457;28;20056;-64
2021/08/21 02:47:40;;;;;;;5.80;4.90;;;19.20;94.60;;;;;;5048833;28;20112;-64
2021/08/21 02:50:06;;;;;;;6.80;5.00;;;19.20;94.60;;;;;;5048246;28;20045;-64
2021/08/21 02:52:32;;;;;;;7.22;5.40;;;19.10;94.60;;;;;;5050724;28;20044;-64
2021/08/21 02:54:57;;;;;;;7.80;5.28;;;19.10;94.60;;;;;;5047263;28;20412;-64
2021/08/21 02:57:23;;;;;;;7.35;5.65;;;19.10;94.60;;;;;;5050014;28;20117;-64
2021/08/21 02:59:48;;;;;;;8.30;5.75;;;19.10;94.70;;;;;;5041677;28;20021;-65
2021/08/21 03:02:14;;;;;;;9.10;4.88;;;19.10;94.70;;;;;;5048142;28;20025;-65
2021/08/21 03:04:39;;;;;;;7.78;5.43;;;19.00;94.80;;;;;;5032439;28;20079;-65
2021/08/21 03:07:04;;;;;;;8.25;5.78;;;19.00;94.80;;;;;;5048275;28;20024;-65
2021/08/21 03:09:30;;;;;;;7.32;5.80;;;18.90;94.80;;;;;;5051012;28;20044;-65
2021/08/21 03:11:55;;;;;;;6.90;5.32;;;18.90;94.70;;;;;;5049790;28;20481;-65
2021/08/21 03:14:21;;;;;;;8.80;5.82;;;19.00;94.80;;;;;;5031762;28;20124;-65
2021/08/21 03:16:46;;;;;;;8.35;5.45;;;18.90;94.90;;;;;;5041357;28;20488;-65
2021/08/21 03:19:12;;;;;;;7.78;6.00;;;18.90;94.90;;;;;;5055150;28;20170;-64
2021/08/21 03:21:37;;;;;;;7.28;5.95;;;18.90;94.90;;;;;;5045382;28;20373;-64
2021/08/21 03:24:06;;;;;;;7.00;5.57;;;18.90;95.00;;;;;;5054649;28;20025;-64
2021/08/21 03:26:31;;;;;;;6.78;4.70;;;18.80;95.10;;;;;;5052428;28;20036;-65
2021/08/21 03:28:57;;;;;;;7.40;5.13;;;18.80;95.10;;;;;;5054868;28;20037;-65
2021/08/21 03:31:22;;;;;;;7.47;5.57;;;18.70;95.20;;;;;;5033524;28;20032;-63
2021/08/21 03:33:48;;;;;;;6.88;5.40;;;18.70;95.20;;;;;;5055291;28;20033;-62
2021/08/21 03:36:13;;;;;;;8.25;5.97;;;18.70;95.30;;;;;;5051503;28;20024;-62
2021/08/21 03:38:39;;;;;;;7.60;6.13;;;18.60;95.30;;;;;;5031693;28;20742;-62
2021/08/21 03:41:04;;;;;;;8.10;5.22;;;18.60;95.40;;;;;;5040013;28;20009;-63
2021/08/21 03:43:30;;;;;;;7.75;5.80;;;18.50;95.40;;;;;;5034881;28;20080;-63
2021/08/21 03:45:55;;;;;;;8.82;5.82;;;18.50;95.50;;;;;;5042097;28;20025;-63
2021/08/21 03:48:21;;;;;;;8.20;6.00;;;18.40;95.60;;;;;;5053644;28;20021;-63
2021/08/21 03:50:46;;;;;;;9.30;6.05;;;18.40;95.70;;;;;;5051401;28;20417;-63
2021/08/21 03:53:12;;;;;;;8.02;6.03;;;18.40;95.80;;;;;;5040817;28;20009;-63
2021/08/21 03:55:37;;;;;;;8.20;7.05;;;18.30;95.90;;;;;;5053461;28;20116;-63
2021/08/21 03:58:03;;;;;;;8.65;6.00;;;18.30;95.90;;;;;;5036670;28;20366;-63
2021/08/21 04:00:28;;;;;;;7.63;6.00;;;18.30;96.00;;;;;;5039545;28;20033;-63
2021/08/21 04:02:54;;;;;;;8.25;6.15;;;18.20;96.00;;;;;;5018644;28;20036;-63
2021/08/21 04:05:19;;;;;;;8.68;5.80;;;18.20;96.10;;;;;;5043992;28;20116;-63
2021/08/21 04:07:45;;;;;;;7.25;5.88;;;18.20;96.20;;;;;;5036025;28;20489;-63
2021/08/21 04:10:10;;;;;;;7.68;6.32;;;18.20;96.20;;;;;;5046550;28;20040;-63
2021/08/21 04:12:36;;;;;;;8.18;6.20;;;18.20;96.30;;;;;;5047369;28;20034;-63
2021/08/21 04:15:02;;;;;;;7.50;5.93;;;18.20;96.30;;;;;;5035209;28;20025;-63
2021/08/21 04:17:28;;;;;;;10.00;6.10;;;18.20;96.30;;;;;;5053897;28;20135;-63
2021/08/21 04:19:53;;;;;;;7.90;6.57;;;18.20;96.30;;;;;;5050564;28;20513;-63
2021/08/21 04:22:19;;;;;;;6.70;5.60;;;18.30;96.40;;;;;;5053627;28;20041;-63
2021/08/21 04:24:44;;;;;;;8.13;5.93;;;18.20;96.30;;;;;;5051855;28;20032;-63
2021/08/21 04:27:10;;;;;;;8.10;5.88;;;18.30;96.30;;;;;;5045924;28;20037;-63
2021/08/21 04:29:35;;;;;;;7.72;6.10;;;18.30;96.40;;;;;;5041938;28;20028;-63
2021/08/21 04:32:02;;;;;;;9.50;6.50;;;18.20;96.40;;;;;;5052697;28;20529;-63
2021/08/21 04:34:28;;;;;;;8.90;6.85;;;18.30;96.50;;;;;;5034300;28;20021;-63
2021/08/21 04:36:56;;;;;;;8.05;6.88;;;18.30;96.50;;;;;;5050231;28;20040;-63
2021/08/21 04:39:21;;;;;;;7.57;5.63;;;18.30;96.50;;;;;;5051427;28;20544;-63
2021/08/21 04:41:47;;;;;;;6.78;5.70;;;18.40;96.50;;;;;;5052808;28;20119;-63
2021/08/21 04:44:12;;;;;;;9.20;6.78;;;18.40;96.50;;;;;;5052146;28;20025;-63
2021/08/21 04:46:38;;;;;;;10.02;6.13;;;18.50;96.50;;;;;;5052435;28;20362;-63
2021/08/21 04:49:03;;;;;;;9.02;6.20;;;18.50;96.40;;;;;;5051967;28;20029;-63
2021/08/21 04:51:29;;;;;;;8.15;5.60;;;18.50;96.50;;;;;;5050884;28;20053;-63
2021/08/21 04:53:54;;;;;;;8.70;6.82;;;18.60;96.50;;;;;;5052061;28;20031;-63
2021/08/21 04:56:20;;;;;;;11.05;6.00;;;18.60;96.60;;;;;;5033673;28;20029;-65
2021/08/21 04:58:45;;;;;;;9.85;6.38;;;18.60;96.60;;;;;;5039658;28;20489;-65
2021/08/21 05:01:11;;;;;;;9.65;7.13;;;18.70;96.60;;;;;;5044511;28;20111;-66
2021/08/21 05:03:36;;;;;;;9.85;7.00;;;18.70;96.60;;;;;;5051624;28;20037;-65
2021/08/21 05:06:02;;;;;;;8.50;6.30;;;18.80;96.60;;;;;;5047925;28;20501;-65
2021/08/21 05:08:28;;;;;;;10.00;7.18;;;18.80;96.60;;;;;;5033688;28;20022;-65
2021/08/21 05:10:53;;;;;;;10.52;6.97;;;18.90;96.60;;;;;;5040539;28;20498;-65
2021/08/21 05:13:19;;;;;;;8.50;6.90;;;18.90;96.50;;;;;;5032924;28;20030;-65
2021/08/21 05:15:46;;;;;;;10.35;7.43;;;19.00;96.60;;;;;;5040486;28;20029;-65
2021/08/21 05:18:13;;;;;;;9.65;6.60;;;19.10;96.60;;;;;;5033763;28;20048;-65
2021/08/21 05:20:44;;;;;;;9.70;7.22;;;19.10;96.50;;;;;;5051015;28;20389;-65
2021/08/21 05:23:15;;;;;;;9.70;7.18;;;19.10;96.50;;;;;;5043741;28;20473;-65
2021/08/21 05:25:44;;;;;;;11.93;7.18;;;19.10;96.40;;;;;;5047907;28;20025;-65
2021/08/21 05:28:10;;;;;;;7.93;6.72;;;19.20;96.40;;;;;;5044559;28;20034;-65
2021/08/21 05:30:38;;;;;;;10.60;7.28;;;19.20;96.40;;;;;;5051040;28;20481;-65
2021/08/21 05:33:07;;;;;;;11.70;7.80;;;19.20;96.20;;;;;;5051192;28;20031;-65
2021/08/21 05:35:33;;;;;;;11.90;7.53;;;19.30;96.20;;;;;;5045872;28;20025;-65
2021/08/21 05:37:58;;;;;;;11.85;7.45;;;19.30;96.10;;;;;;5052127;28;20025;-65
2021/08/21 05:40:24;;;;;;;12.18;8.25;;;19.20;95.90;;;;;;5049136;28;20100;-65
2021/08/21 05:42:49;;;;;;;9.43;6.57;;;19.30;95.80;;;;;;5048787;28;20024;-65
2021/08/21 05:45:15;;;;;;;10.10;7.63;;;19.30;95.90;;;;;;5032581;28;20512;-65
2021/08/21 05:47:40;;;;;;;10.00;6.82;;;19.30;95.90;;;;;;5032560;28;20155;-65
2021/08/21 05:50:06;;;;;;;9.88;7.55;;;19.30;96.00;;;;;;5036493;28;20033;-65
2021/08/21 05:52:32;;;;;;;12.45;7.80;;;19.40;96.00;;;;;;5050486;28;20052;-65
2021/08/21 05:54:57;;;;;;;11.80;8.02;;;19.50;95.80;;;;;;5040882;28;20482;-65
2021/08/21 05:57:23;;;;;;;11.05;8.15;;;19.50;95.60;;;;;;5047935;28;20029;-65
2021/08/21 05:59:48;;;;;;;10.40;8.45;;;19.50;95.50;;;;;;5031552;28;20114;-65
2021/08/21 06:02:14;;;;;;;11.73;8.60;;;19.50;95.50;;;;;;5033338;28;20049;-65
2021/08/21 06:04:39;;;;;;;11.05;8.82;;;19.40;95.40;;;;;;5031986;28;20536;-65
2021/08/21 06:07:05;;;;;;;10.90;7.78;;;19.40;95.30;;;;;;5049263;28;20121;-65
2021/08/21 06:09:30;;;;;;;12.20;7.53;;;19.50;95.40;;;;;;5052055;28;20477;-65
2021/08/21 06:11:56;;;;;;;11.82;8.70;;;19.50;95.50;;;;;;5034070;28;20466;-65
2021/08/21 06:14:21;;;;;;;10.50;8.88;;;19.50;95.30;;;;;;5031201;28;20025;-66
2021/08/21 06:16:47;;;;;;;10.73;8.55;;;19.50;95.40;;;;;;5046156;28;20047;-65
2021/08/21 06:19:12;;;;;;;10.80;8.40;;;19.50;95.30;;;;;;5044963;28;20037;-65
2021/08/21 06:21:38;;;;;;;10.32;8.05;;;19.50;95.30;;;;;;5040783;28;20469;-65
2021/08/21 06:24:04;;;;;;;11.27;8.63;;;19.50;95.30;;;;;;5031917;28;20101;-65
2021/08/21 06:26:30;;;;;;;12.40;8.23;;;19.60;95.30;;;;;;5045052;28;20044;-65
2021/08/21 06:28:55;;;;;;;10.65;8.68;;;19.60;95.30;;;;;;5043875;28;20014;-65
2021/08/21 06:31:20;;;;;;;11.45;8.70;;;19.60;95.20;;;;;;5043856;28;20460;-65
2021/08/21 06:33:46;;;;;;;11.02;8.55;;;19.60;95.30;;;;;;5043458;28;20111;-65
2021/08/21 06:36:12;;;;;;;13.30;8.65;;;19.60;95.20;;;;;;5049598;28;20094;-65
2021/08/21 06:38:37;;;;;;;12.95;8.43;;;19.70;95.40;;;;;;5041119;28;20044;-65
2021/08/21 06:41:03;;;;;;;10.77;8.05;;;19.70;95.40;;;;;;5050280;28;20527;-64
2021/08/21 06:43:28;;;;;;;12.07;8.48;;;19.80;95.20;;;;;;5035625;28;20565;-65
2021/08/21 06:45:54;;;;;;;11.52;8.80;;;19.80;95.00;;;;;;5029754;28;20041;-67
2021/08/21 06:48:19;;;;;;;13.05;9.00;;;19.90;95.20;;;;;;5034341;28;20541;-64
2021/08/21 06:50:45;;;;;;;14.27;8.93;;;19.90;94.90;;;;;;5030752;28;20052;-67
2021/08/21 06:53:11;;;;;;;12.85;9.57;;;19.90;95.10;;;;;;5047062;28;20100;-67
2021/08/21 06:55:36;;;;;;;13.50;8.85;;;20.00;94.90;;;;;;5037648;28;20036;-67
2021/08/21 06:58:02;;;;;;;11.65;8.45;;;20.00;94.80;;;;;;5041467;28;20125;-66
2021/08/21 07:00:27;;;;;;;11.38;8.52;;;20.00;94.80;;;;;;5044366;28;20389;-66
2021/08/21 07:02:53;;;;;;;12.32;7.95;;;20.00;94.80;;;;;;5037367;28;20025;-66
2021/08/21 07:05:18;;;;;;;11.65;8.52;;;20.00;95.00;;;;;;5015757;28;20032;-66
2021/08/21 07:07:44;;;;;;;10.60;7.65;;;20.10;94.90;;;;;;5028901;28;20036;-66
2021/08/21 07:10:09;;;;;;;9.50;7.65;;;20.20;94.90;;;;;;5031867;28;20025;-66
2021/08/21 07:12:35;;;;;;;11.52;7.30;;;20.30;94.60;;;;;;5017175;28;20071;-66
2021/08/21 07:15:01;;;;;;;10.35;7.80;;;20.30;94.70;;;;;;5045611;28;21167;-66
2021/08/21 07:17:27;;;;;;;9.52;7.35;;;20.40;94.60;;;;;;5035300;28;20811;-66
2021/08/21 07:19:52;;;;;;;10.25;6.97;;;20.50;94.60;;;;;;5035571;28;20017;-67
2021/08/21 07:22:18;;;;;;;8.45;6.07;;;20.70;94.50;;;;;;5040485;28;20119;-67
2021/08/21 07:24:43;;;;;;;8.75;5.80;;;20.80;94.10;;;;;;5039662;28;20029;-67
2021/08/21 07:27:09;;;;;;;9.15;5.75;;;20.90;93.80;;;;;;5041564;28;20017;-67
2021/08/21 07:29:34;;;;;;;6.72;5.15;;;21.10;93.80;;;;;;5047290;28;20033;-67
2021/08/21 07:32:00;;;;;;;8.02;5.90;;;21.20;93.70;;;;;;5042916;28;20025;-67
2021/08/21 07:34:25;;;;;;;9.32;6.80;;;21.30;93.20;;;;;;5034453;28;20021;-67
2021/08/21 07:36:51;;;;;;;7.88;5.38;;;21.40;92.50;;;;;;5044624;28;20041;-67
2021/08/21 07:39:17;;;;;;;9.93;7.10;;;21.50;92.90;;;;;;5033934;28;20640;-67
2021/08/21 07:41:43;;;;;;;7.70;6.30;;;21.60;92.20;;;;;;5036144;28;20094;-68
2021/08/21 07:44:09;;;;;;;6.82;5.45;;;21.60;92.10;;;;;;5033071;28;20942;-67
2021/08/21 07:46:35;;;;;;;7.38;5.90;;;21.70;92.40;;;;;;5041452;28;20078;-66
2021/08/21 07:49:00;;;;;;;11.10;6.50;;;21.70;92.30;;;;;;5022614;28;20034;-67
2021/08/21 07:51:26;;;;;;;9.82;6.00;;;21.80;92.00;;;;;;5033281;28;20045;-67
2021/08/21 07:53:51;;;;;;;7.85;6.20;;;21.70;91.80;;;;;;5048912;28;20542;-67
2021/08/21 07:56:17;;;;;;;7.90;5.80;;;21.80;91.60;;;;;;5045827;28;20051;-67
2021/08/21 07:58:42;;;;;;;9.65;6.93;;;21.80;91.50;;;;;;5048499;28;20033;-69
2021/08/21 08:01:08;;;;;;;12.13;6.60;;;21.80;91.20;;;;;;5040582;28;20036;-70
2021/08/21 08:03:33;;;;;;;8.95;5.88;;;21.90;91.00;;;;;;5037914;28;20021;-67
2021/08/21 08:05:59;;;;;;;8.77;6.10;;;21.90;91.20;;;;;;5038898;28;20025;-68
2021/08/21 08:08:24;;;;;;;8.07;6.50;;;21.90;91.20;;;;;;5035472;28;20024;-68
2021/08/21 08:10:51;;;;;;;7.75;5.75;;;21.90;91.00;;;;;;5033874;28;20512;-67
2021/08/21 08:13:17;;;;;;;9.85;5.57;;;22.00;91.40;;;;;;5038340;28;20018;-67
2021/08/21 08:15:43;;;;;;;9.07;4.93;;;22.00;91.30;;;;;;5035827;28;20501;-66
2021/08/21 08:18:09;;;;;;;10.55;5.97;;;22.10;91.60;;;;;;5037458;28;20029;-69
2021/08/21 08:20:34;;;;;;;9.23;6.47;;;22.10;91.00;;;;;;5035502;28;20028;-67
2021/08/21 08:23:00;;;;;;;8.65;6.05;;;22.10;90.50;;;;;;5048541;28;20040;-67
2021/08/21 08:25:25;;;;;;;8.18;5.88;;;22.10;90.70;;;;;;5040691;28;20025;-68
2021/08/21 08:27:51;;;;;;;8.00;6.05;;;22.00;90.30;;;;;;5053968;28;20228;-68
2021/08/21 08:30:17;;;;;;;8.82;5.78;;;22.10;90.50;;;;;;5051432;28;20020;-67
2021/08/21 08:32:42;;;;;;;9.30;6.18;;;22.00;90.50;;;;;;5053925;28;20025;-67
2021/08/21 08:35:09;;;;;;;7.80;5.78;;;22.00;90.40;;;;;;5052132;28;20041;-67
2021/08/21 08:37:35;;;;;;;7.60;5.18;;;22.00;90.40;;;;;;5053646;28;20040;-67
2021/08/21 08:40:00;;;;;;;8.15;5.53;;;22.10;90.40;;;;;;5051247;28;20029;-67
2021/08/21 08:42:26;;;;;;;10.73;5.45;;;22.20;90.30;;;;;;5037098;28;20044;-67
2021/08/21 08:44:52;;;;;;;8.95;5.13;;;22.30;90.10;;;;;;5046784;28;20021;-67
2021/08/21 08:47:18;;;;;;;9.10;4.50;;;22.30;89.70;;;;;;5035743;28;20028;-66
2021/08/21 08:49:46;;;;;;;10.43;5.72;;;22.40;89.70;;;;;;5033890;28;20105;-66
2021/08/21 08:52:13;;;;;;;6.78;4.72;;;22.50;88.90;;;;;;5033994;28;20069;-67
2021/08/21 08:54:38;;;;;;;7.93;5.00;;;22.50;89.30;;;;;;5050192;28;20369;-67
2021/08/21 08:57:04;;;;;;;6.82;4.70;;;22.60;89.20;;;;;;5025251;28;20037;-67
2021/08/21 08:59:32;;;;;;;7.25;5.38;;;22.70;89.30;;;;;;5036536;28;20030;-66
2021/08/21 09:01:57;;;;;;;7.57;5.85;;;22.70;88.40;;;;;;5054317;28;20064;-67
2021/08/21 09:04:25;;;;;;;8.75;5.85;;;22.80;88.50;;;;;;5056996;28;20102;-67
2021/08/21 09:06:52;;;;;;;6.57;4.93;;;22.90;87.60;;;;;;5056969;28;20075;-66
2021/08/21 09:09:20;;;;;;;6.05;4.43;;;22.90;87.30;;;;;;5055226;28;20140;-68
2021/08/21 09:11:52;;;;;;;6.10;4.53;;;23.00;87.80;;;;;;5052047;28;20024;-67
2021/08/21 09:14:28;;;;;;;7.00;4.40;;;23.00;88.00;;;;;;5024960;28;20029;-67
2021/08/21 09:17:13;;;;;;;8.32;5.13;;;23.10;87.70;;;;;;5037831;28;20033;-67
2021/08/21 09:19:39;;;;;;;5.38;4.30;;;23.20;87.60;;;;;;5039747;28;20029;-67
2021/08/21 09:22:06;;;;;;;7.00;4.97;;;23.30;87.80;;;;;;5046981;28;20493;-67
2021/08/21 09:24:33;;;;;;;7.38;4.03;;;23.30;86.70;;;;;;5034931;28;20052;-68
2021/08/21 09:27:16;;;;;;;7.00;5.43;;;23.40;87.10;;;;;;5019587;28;20031;-67
2021/08/21 09:29:42;;;;;;;6.57;4.13;;;23.40;86.20;;;;;;5052790;28;20028;-67
2021/08/21 09:32:08;;;;;;;5.13;3.85;;;23.50;86.30;;;;;;5034808;28;20488;-67
2021/08/21 09:34:33;;;;;;;6.38;3.85;;;23.50;86.80;;;;;;5052616;28;20021;-67
2021/08/21 09:36:59;;;;;;;8.77;4.20;;;23.60;87.00;;;;;;5033864;28;20302;-67
2021/08/21 09:39:38;;;;;;;7.30;4.90;;;23.70;86.80;;;;;;5051641;28;20075;-67
2021/08/21 09:42:05;;;;;;;5.45;4.13;;;23.70;85.40;;;;;;5050498;28;20017;-68
2021/08/21 09:44:36;;;;;;;4.70;4.00;;;23.80;86.00;;;;;;5052317;28;20029;-67
2021/08/21 09:47:26;;;;;;;7.30;4.60;;;23.80;84.80;;;;;;5033167;28;20107;-67
2021/08/21 09:50:12;;;;;;;6.90;4.40;;;23.90;83.80;;;;;;5034527;28;20110;-67
2021/08/21 09:52:38;;;;;;;5.50;3.85;;;23.90;84.50;;;;;;5050439;28;20029;-67
2021/08/21 09:55:09;;;;;;;5.45;3.97;;;24.00;84.70;;;;;;5051842;28;20111;-67
2021/08/21 09:57:34;;;;;;;6.00;4.00;;;24.00;84.60;;;;;;5050912;28;20047;-67
2021/08/21 10:00:00;;;;;;;6.10;3.90;;;24.10;84.50;;;;;;5052068;28;20029;-67
2021/08/21 10:02:29;;;;;;;7.60;3.38;;;24.10;84.20;;;;;;5050438;28;20063;-67
2021/08/21 10:04:55;;;;;;;5.68;4.32;;;24.20;84.10;;;;;;5051852;28;20029;-67
2021/08/21 10:07:24;;;;;;;7.43;4.28;;;24.20;82.30;;;;;;5032887;28;20158;-67
2021/08/21 10:09:53;;;;;;;6.72;4.50;;;24.20;81.90;;;;;;5051914;28;20025;-67
2021/08/21 10:12:23;;;;;;;6.57;4.18;;;24.10;81.30;;;;;;5044739;28;20116;-67
2021/08/21 10:14:50;;;;;;;6.05;4.18;;;24.00;81.80;;;;;;5051729;28;20052;-67
2021/08/21 10:17:16;;;;;;;6.65;3.95;;;24.00;81.60;;;;;;5042086;28;20036;-65
2021/08/21 10:19:43;;;;;;;7.43;4.55;;;24.00;81.20;;;;;;5033625;28;20095;-65
2021/08/21 10:22:09;;;;;;;4.63;3.92;;;23.90;80.80;;;;;;5035756;28;20025;-66
2021/08/21 10:24:40;;;;;;;7.88;4.65;;;23.80;81.00;;;;;;5050496;28;20032;-67
2021/08/21 10:27:28;;;;;;;4.82;3.90;;;23.90;81.20;;;;;;5049482;28;20040;-66
2021/08/21 10:30:04;;;;;;;6.45;4.30;;;23.90;81.90;;;;;;5051385;28;20579;-66
2021/08/21 10:32:40;;;;;;;5.07;3.90;;;24.00;81.60;;;;;;5050186;28;20032;-67
2021/08/21 10:35:07;;;;;;;4.85;4.00;;;24.10;81.10;;;;;;5051029;28;20418;-67
2021/08/21 10:37:37;;;;;;;5.70;4.20;;;24.10;80.30;;;;;;5049682;28;20417;-66
2021/08/21 10:40:27;;;;;;;4.90;3.55;;;24.20;80.20;;;;;;5051221;28;20508;-67
2021/08/21 10:42:53;;;;;;;6.13;3.83;;;24.20;81.50;;;;;;5049079;28;20029;-67
2021/08/21 10:45:58;;;;;;;5.97;4.55;;;24.30;81.50;;;;;;5050910;28;20484;-67
2021/08/21 10:48:25;;;;;;;5.60;3.40;;;24.40;81.90;;;;;;5006492;28;20549;-67
2021/08/21 10:50:51;;;;;;;4.43;3.25;;;24.50;81.90;;;;;;4992554;28;20434;-67
2021/08/21 10:53:28;;;;;;;7.18;3.78;;;24.60;81.40;;;;;;5025574;28;20339;-67
2021/08/21 10:55:55;;;;;;;7.90;3.38;;;24.70;81.30;;;;;;5050598;28;20509;-67
2021/08/21 10:58:22;;;;;;;4.68;3.80;;;24.80;80.40;;;;;;5036521;28;20057;-67
2021/08/21 11:01:07;;;;;;;7.00;3.80;;;24.90;78.70;;;;;;5030988;28;20053;-66
2021/08/21 11:03:33;;;;;;;4.82;4.20;;;25.00;78.20;;;;;;5046574;28;20477;-67
2021/08/21 11:06:04;;;;;;;5.68;3.30;;;25.10;76.80;;;;;;5050544;28;20032;-67
2021/08/21 11:08:39;;;;;;;6.53;3.47;;;25.10;77.30;;;;;;5049278;28;20090;-67
2021/08/21 11:11:12;;;;;;;5.28;3.17;;;25.20;77.40;;;;;;5050387;28;20067;-67
2021/08/21 11:13:56;;;;;;;6.53;3.25;;;25.30;76.30;;;;;;5049777;28;20037;-67
2021/08/21 11:16:24;;;;;;;4.13;3.00;;;25.30;76.70;;;;;;5048539;28;20029;-67
2021/08/21 11:18:51;;;;;;;4.82;3.63;;;25.40;75.70;;;;;;5045355;28;20037;-66
2021/08/21 11:21:35;;;;;;;4.50;3.42;;;25.40;74.30;;;;;;5030780;28;20100;-66
2021/08/21 11:24:02;;;;;;;5.10;3.72;;;25.30;74.60;;;;;;5049654;28;20029;-67
2021/08/21 11:26:28;;;;;;;4.68;3.75;;;25.20;73.70;;;;;;5050654;28;20025;-66
2021/08/21 11:29:09;;;;;;;5.97;3.80;;;25.00;74.40;;;;;;5049029;28;20067;-66
2021/08/21 11:32:00;;;;;;;4.60;3.30;;;25.00;74.80;;;;;;5049965;28;20025;-66
2021/08/21 11:34:26;;;;;;;5.22;3.33;;;24.90;74.60;;;;;;5030799;28;20030;-68
2021/08/21 11:36:52;;;;;;;5.07;3.60;;;24.80;73.90;;;;;;5035271;28;20134;-69
2021/08/21 11:39:18;;;;;;;5.10;3.58;;;24.70;73.70;;;;;;5054816;28;20041;-68
2021/08/21 11:41:56;;;;;;;4.75;3.25;;;24.60;73.80;;;;;;5053877;28;20017;-67
2021/08/21 11:44:30;;;;;;;4.32;3.35;;;24.60;75.10;;;;;;5034579;28;20032;-69
2021/08/21 11:47:09;;;;;;;5.13;3.60;;;24.60;75.10;;;;;;5036286;28;20124;-68
2021/08/21 11:49:38;;;;;;;6.65;3.90;;;24.60;74.10;;;;;;5034670;28;20037;-68
2021/08/21 11:52:05;;;;;;;5.45;3.83;;;24.60;73.80;;;;;;5037409;28;20109;-68
2021/08/21 11:54:31;;;;;;;3.53;2.67;;;24.60;73.90;;;;;;5054343;28;20025;-66
2021/08/21 11:57:01;;;;;;;3.47;2.70;;;24.70;72.90;;;;;;5053390;28;20047;-68
2021/08/21 11:59:28;;;;;;;4.00;2.78;;;24.70;73.70;;;;;;5054341;28;20033;-66
2021/08/21 12:02:10;;;;;;;4.35;2.70;;;24.80;74.20;;;;;;5056346;28;20199;-66
2021/08/21 12:04:35;;;;;;;3.60;2.50;;;24.90;73.20;;;;;;5053815;28;20347;-66
2021/08/21 12:07:01;;;;;;;3.60;2.53;;;25.00;73.60;;;;;;5053404;28;20041;-66
2021/08/21 12:09:26;;;;;;;5.15;2.70;;;25.10;73.80;;;;;;5054077;28;20032;-66
2021/08/21 12:11:54;;;;;;;5.22;2.75;;;25.10;73.40;;;;;;5052308;28;20033;-66
2021/08/21 12:14:24;;;;;;;4.13;3.08;;;25.20;74.40;;;;;;5053569;28;20465;-66
2021/08/21 12:16:53;;;;;;;6.65;2.88;;;25.30;71.80;;;;;;5039604;28;20492;-66
2021/08/21 12:19:21;;;;;;;4.75;2.65;;;25.30;71.70;;;;;;5053274;28;20029;-67
2021/08/21 12:21:47;;;;;;;3.60;2.92;;;25.40;71.50;;;;;;5052463;28;20056;-67
2021/08/21 12:24:12;;;;;;;4.55;2.67;;;25.40;71.60;;;;;;5053308;28;20025;-67
2021/08/21 12:26:45;;;;;;;4.63;2.88;;;25.40;71.20;;;;;;5052616;28;20025;-67
2021/08/21 12:29:26;;;;;;;3.58;2.70;;;25.40;70.90;;;;;;5033348;28;20029;-67
2021/08/21 12:31:52;;;;;;;3.92;2.75;;;25.30;70.20;;;;;;5034678;28;20037;-67
2021/08/21 12:34:20;;;;;;;6.93;3.47;;;25.30;70.60;;;;;;5053244;28;20449;-67
2021/08/21 12:36:46;;;;;;;3.78;2.70;;;25.30;70.60;;;;;;5052319;28;20033;-67
2021/08/21 12:39:18;;;;;;;5.18;2.67;;;25.20;70.00;;;;;;5053643;28;20044;-67
2021/08/21 12:42:03;;;;;;;4.05;2.45;;;25.20;70.70;;;;;;5052085;28;20032;-67
2021/08/21 12:44:41;;;;;;;5.50;2.20;;;25.20;70.30;;;;;;5036200;28;20131;-67
2021/08/21 12:47:16;;;;;;;4.68;2.53;;;25.20;71.40;;;;;;5019333;28;20044;-66